Time;durP1;ratioP1;P1;durP2;ratioP2;P2;SDS_P1;SDS_P2;PMS_P1;PMS_P2;Temp;Humidity;BMP_temperature;BMP_pressure;BME280_temperature;BME280_humidity;BME280_pressure;Samples;Min_cycle;Max_cycle;Signal;HPM_P1;HPM_P2
2022/10/13 00:00:38;;;;;;;1999.90;999.90;;;12.00;99.90;;;;;;4974671;28;20213;-73
2022/10/13 00:03:03;;;;;;;1999.90;999.90;;;11.90;99.90;;;;;;4974218;28;20501;-73
2022/10/13 00:05:30;;;;;;;1999.90;999.90;;;11.90;99.90;;;;;;4974613;28;20441;-73
2022/10/13 00:07:56;;;;;;;1999.90;999.90;;;11.90;99.90;;;;;;4974401;28;20817;-73
2022/10/13 00:10:23;;;;;;;1999.90;999.90;;;11.90;99.90;;;;;;4974477;28;20417;-73
2022/10/13 00:12:48;;;;;;;1999.90;999.90;;;11.80;99.90;;;;;;4974559;28;20414;-73
2022/10/13 00:15:14;;;;;;;1999.90;999.90;;;11.80;99.90;;;;;;4974349;28;20410;-73
2022/10/13 00:17:40;;;;;;;1999.90;999.90;;;11.80;99.90;;;;;;4974033;28;20194;-73
2022/10/13 00:20:07;;;;;;;1999.90;999.90;;;11.80;99.90;;;;;;4974318;28;20174;-73
2022/10/13 00:22:33;;;;;;;1999.90;999.90;;;11.80;99.90;;;;;;4974258;28;20532;-73
2022/10/13 00:24:58;;;;;;;1999.90;999.90;;;11.80;99.90;;;;;;4974243;28;20480;-73
2022/10/13 00:27:24;;;;;;;1999.90;999.90;;;11.80;99.90;;;;;;4973944;28;20330;-73
2022/10/13 00:29:50;;;;;;;1999.90;999.90;;;11.90;99.90;;;;;;4974021;28;20218;-73
2022/10/13 00:32:15;;;;;;;1999.90;999.90;;;11.80;99.90;;;;;;4974115;28;20202;-73
2022/10/13 00:34:41;;;;;;;1999.90;999.90;;;11.90;99.90;;;;;;4974081;28;20177;-73
2022/10/13 00:37:07;;;;;;;1999.90;999.90;;;11.90;99.90;;;;;;4973747;28;20194;-73
2022/10/13 00:39:33;;;;;;;1999.90;999.90;;;11.90;99.90;;;;;;4973954;28;20205;-73
2022/10/13 00:41:59;;;;;;;1999.90;999.90;;;11.90;99.90;;;;;;4973944;28;20574;-73
2022/10/13 00:44:53;;;;;;;1999.90;999.90;;;11.90;99.90;;;;;;4973839;28;20625;-73
2022/10/13 00:47:19;;;;;;;1999.90;999.90;;;11.90;99.90;;;;;;4973447;28;20520;-73
2022/10/13 00:49:45;;;;;;;1999.90;999.90;;;11.80;99.90;;;;;;4973784;28;20410;-73
2022/10/13 00:52:13;;;;;;;1999.90;999.90;;;11.80;99.90;;;;;;4973775;28;20402;-73
2022/10/13 00:54:39;;;;;;;1999.90;999.90;;;11.80;99.90;;;;;;4973752;28;20411;-72
2022/10/13 00:57:07;;;;;;;1999.90;999.90;;;11.80;99.90;;;;;;4973447;28;20462;-72
2022/10/13 00:59:33;;;;;;;1999.90;999.90;;;11.80;99.90;;;;;;4973474;28;20770;-72
2022/10/13 01:02:01;;;;;;;1999.90;999.90;;;11.80;99.90;;;;;;4973486;28;20451;-72
2022/10/13 01:04:33;;;;;;;1999.90;999.90;;;11.70;99.90;;;;;;4972432;28;20411;-72
2022/10/13 01:07:00;;;;;;;1999.90;999.90;;;11.80;99.90;;;;;;4973270;28;20481;-72
2022/10/13 01:09:25;;;;;;;1999.90;999.90;;;11.70;99.90;;;;;;4973447;28;20578;-72
2022/10/13 01:12:25;;;;;;;1999.90;999.90;;;11.80;99.90;;;;;;4973422;28;20538;-72
2022/10/13 01:15:10;;;;;;;1999.90;999.90;;;11.80;99.90;;;;;;4972871;28;20625;-72
2022/10/13 01:18:02;;;;;;;1999.90;999.90;;;11.80;99.90;;;;;;4973041;28;20452;-72
2022/10/13 01:20:52;;;;;;;1999.90;999.90;;;11.70;99.90;;;;;;4973317;28;20409;-72
2022/10/13 01:23:34;;;;;;;1999.90;999.90;;;11.70;99.90;;;;;;4973233;28;20456;-72
2022/10/13 01:26:36;;;;;;;1999.90;999.90;;;11.80;99.90;;;;;;4973252;28;20532;-72
2022/10/13 01:29:26;;;;;;;1999.90;999.90;;;11.80;99.90;;;;;;4973210;28;20827;-72
2022/10/13 01:32:07;;;;;;;1999.90;999.90;;;11.80;99.90;;;;;;4973182;28;20402;-72
2022/10/13 01:34:43;;;;;;;1999.90;999.90;;;11.80;99.90;;;;;;4973294;28;20394;-73
2022/10/13 01:37:28;;;;;;;1999.90;999.90;;;11.70;99.90;;;;;;4972875;28;20421;-73
2022/10/13 01:40:00;;;;;;;1999.90;999.90;;;11.80;99.90;;;;;;4973162;28;20453;-73
2022/10/13 01:42:40;;;;;;;1999.90;999.90;;;11.70;99.90;;;;;;4973099;28;20882;-73
2022/10/13 01:45:09;;;;;;;1999.90;999.90;;;11.70;99.90;;;;;;4973094;28;20783;-73
2022/10/13 01:47:37;;;;;;;1999.90;999.90;;;11.70;99.90;;;;;;4975095;28;20452;-72
2022/10/13 01:50:05;;;;;;;1999.90;999.90;;;11.70;99.90;;;;;;4976250;28;20406;-72
2022/10/13 01:52:35;;;;;;;1999.90;999.90;;;11.70;99.90;;;;;;4973262;28;20415;-72
2022/10/13 01:55:10;;;;;;;1999.90;999.90;;;11.70;99.90;;;;;;4973164;28;20414;-72
2022/10/13 01:57:37;;;;;;;1999.90;999.90;;;11.80;99.90;;;;;;4972553;28;20507;-72
2022/10/13 02:00:12;;;;;;;1999.90;999.90;;;11.80;99.90;;;;;;4972979;28;20413;-72
2022/10/13 02:03:00;;;;;;;1999.90;999.90;;;11.80;99.90;;;;;;4972851;28;20549;-72
2022/10/13 02:05:47;;;;;;;1999.90;999.90;;;11.90;99.90;;;;;;4972963;28;20982;-72
2022/10/13 02:08:38;;;;;;;1999.90;999.90;;;11.90;99.90;;;;;;4972578;28;20508;-72
2022/10/13 02:11:09;;;;;;;1999.90;999.90;;;11.90;99.90;;;;;;4972942;28;20398;-72
2022/10/13 02:13:36;;;;;;;1999.90;999.90;;;11.90;99.90;;;;;;4972770;28;20412;-72
2022/10/13 02:16:02;;;;;;;1999.90;999.90;;;11.90;99.90;;;;;;4972787;28;20416;-72
2022/10/13 02:18:33;;;;;;;1999.90;999.90;;;11.90;99.90;;;;;;4972376;28;20429;-72
2022/10/13 02:21:00;;;;;;;1999.90;999.90;;;11.90;99.90;;;;;;4972777;28;20501;-72
2022/10/13 02:23:26;;;;;;;1999.90;999.90;;;11.90;99.90;;;;;;4972725;28;20457;-72
2022/10/13 02:25:54;;;;;;;1999.90;999.90;;;11.90;99.90;;;;;;4975406;28;20414;-72
2022/10/13 02:28:21;;;;;;;1999.90;999.90;;;11.80;99.90;;;;;;4976076;28;20424;-72
2022/10/13 02:30:46;;;;;;;1999.90;999.90;;;11.80;99.90;;;;;;4976402;28;20472;-72
2022/10/13 02:33:13;;;;;;;1999.90;999.90;;;11.80;99.90;;;;;;4976283;28;20410;-72
2022/10/13 02:35:39;;;;;;;1999.90;999.90;;;11.70;99.90;;;;;;4976302;28;20206;-72
2022/10/13 02:38:06;;;;;;;1999.90;999.90;;;11.70;99.90;;;;;;4976273;28;20465;-72
2022/10/13 02:40:32;;;;;;;1999.90;999.90;;;11.60;99.90;;;;;;4978321;28;20464;-71
2022/10/13 02:42:57;;;;;;;1999.90;999.90;;;11.60;99.90;;;;;;4977861;28;20201;-72
2022/10/13 02:45:23;;;;;;;1999.90;999.90;;;11.60;99.90;;;;;;4975810;28;20187;-72
2022/10/13 02:47:49;;;;;;;1999.90;999.90;;;11.60;99.90;;;;;;4977165;28;20236;-72
2022/10/13 02:50:14;;;;;;;1999.90;999.90;;;11.60;99.90;;;;;;4978841;28;20226;-72
2022/10/13 02:52:40;;;;;;;1999.90;999.90;;;11.60;99.90;;;;;;4978852;28;20185;-72
2022/10/13 02:55:06;;;;;;;1999.90;999.90;;;11.70;99.90;;;;;;4978880;28;20628;-72
2022/10/13 02:57:32;;;;;;;1999.90;999.90;;;11.70;99.90;;;;;;4978076;28;20284;-72
2022/10/13 02:59:58;;;;;;;1999.90;999.90;;;11.70;99.90;;;;;;4978606;28;20456;-72
2022/10/13 03:02:25;;;;;;;1999.90;999.90;;;11.70;99.90;;;;;;4978128;28;20207;-72
2022/10/13 03:04:51;;;;;;;1999.90;999.90;;;11.70;99.90;;;;;;4978794;28;20209;-72
2022/10/13 03:07:16;;;;;;;1999.90;999.90;;;11.70;99.90;;;;;;4978310;28;20426;-72
2022/10/13 03:09:42;;;;;;;1999.90;999.90;;;11.70;99.90;;;;;;4978209;28;20262;-72
2022/10/13 03:12:08;;;;;;;1999.90;999.90;;;11.70;99.90;;;;;;4977929;28;20181;-72
2022/10/13 03:14:33;;;;;;;1999.90;999.90;;;11.70;99.90;;;;;;4977600;28;20253;-72
2022/10/13 03:16:59;;;;;;;1999.90;999.90;;;11.70;99.90;;;;;;4977591;28;20660;-72
2022/10/13 03:19:25;;;;;;;1999.90;999.90;;;11.70;99.90;;;;;;4978046;28;20178;-72
2022/10/13 03:21:50;;;;;;;1999.90;999.90;;;11.70;99.90;;;;;;4977956;28;20189;-71
2022/10/13 03:24:17;;;;;;;1999.90;999.90;;;11.70;99.90;;;;;;4977476;28;20171;-72
2022/10/13 03:26:42;;;;;;;1999.90;999.90;;;11.70;99.90;;;;;;4976936;28;21009;-72
2022/10/13 03:29:15;;;;;;;1999.90;999.90;;;11.60;99.90;;;;;;4977805;28;20405;-72
2022/10/13 03:31:41;;;;;;;1999.90;999.90;;;11.60;99.90;;;;;;4978017;28;20437;-72
2022/10/13 03:34:09;;;;;;;1999.90;999.90;;;11.50;99.90;;;;;;4977835;28;20483;-72
2022/10/13 03:36:35;;;;;;;1999.90;999.90;;;11.60;99.90;;;;;;4976935;28;20254;-72
2022/10/13 03:39:00;;;;;;;1999.90;999.90;;;11.60;99.90;;;;;;4977186;28;20912;-72
2022/10/13 03:41:26;;;;;;;1999.90;999.90;;;11.60;99.90;;;;;;4976671;28;20412;-72
2022/10/13 03:43:53;;;;;;;1999.90;999.90;;;11.60;99.90;;;;;;4976380;28;20252;-72
2022/10/13 03:46:18;;;;;;;1999.90;999.90;;;11.70;99.90;;;;;;4976515;28;20178;-72
2022/10/13 03:48:45;;;;;;;1999.90;999.90;;;11.70;99.90;;;;;;4976435;28;20458;-72
2022/10/13 03:51:15;;;;;;;1999.90;999.90;;;11.80;99.90;;;;;;4977580;28;20252;-72
2022/10/13 03:53:40;;;;;;;1999.90;999.90;;;11.80;99.90;;;;;;4976102;28;20468;-72
2022/10/13 03:56:07;;;;;;;1999.90;999.90;;;11.90;99.90;;;;;;4976456;28;20415;-72
2022/10/13 03:58:33;;;;;;;1999.90;999.90;;;11.90;99.90;;;;;;4976458;28;20186;-72
2022/10/13 04:01:03;;;;;;;1999.90;999.90;;;11.90;99.90;;;;;;4976667;28;20541;-72
2022/10/13 04:03:29;;;;;;;1999.90;999.90;;;11.90;99.90;;;;;;4976467;28;20485;-72
2022/10/13 04:05:58;;;;;;;1999.90;999.90;;;11.80;99.90;;;;;;4976455;28;20501;-71
2022/10/13 04:08:23;;;;;;;1999.90;999.90;;;11.80;99.90;;;;;;4976330;28;20188;-72
2022/10/13 04:11:01;;;;;;;1999.90;999.90;;;11.80;99.90;;;;;;4976272;28;20492;-72
2022/10/13 04:13:26;;;;;;;1999.90;999.90;;;11.70;99.90;;;;;;4976649;28;20167;-72
2022/10/13 04:15:52;;;;;;;1999.90;999.90;;;11.80;99.90;;;;;;4975973;28;20425;-72
2022/10/13 04:18:17;;;;;;;1999.90;999.90;;;11.80;99.90;;;;;;4976005;28;20191;-72
2022/10/13 04:20:43;;;;;;;1999.90;999.90;;;11.80;99.90;;;;;;4976302;28;20187;-72
2022/10/13 04:23:09;;;;;;;1999.90;999.90;;;11.80;99.90;;;;;;4976275;28;20206;-72
2022/10/13 04:25:37;;;;;;;1999.90;999.90;;;11.80;99.90;;;;;;4976683;28;20171;-72
2022/10/13 04:28:05;;;;;;;1999.90;999.90;;;11.80;99.90;;;;;;4976305;28;20627;-72
2022/10/13 04:30:34;;;;;;;1999.90;999.90;;;11.80;99.90;;;;;;4976746;28;20416;-72
2022/10/13 04:33:00;;;;;;;1999.90;999.90;;;11.80;99.90;;;;;;4977011;28;20410;-72
2022/10/13 04:35:26;;;;;;;1999.90;999.90;;;11.90;99.90;;;;;;4976355;28;20449;-72
2022/10/13 04:37:52;;;;;;;1999.90;999.90;;;11.80;99.90;;;;;;4975947;28;20436;-72
2022/10/13 04:40:17;;;;;;;1999.90;999.90;;;11.80;99.90;;;;;;4976335;28;20173;-72
2022/10/13 04:42:43;;;;;;;1999.90;999.90;;;11.80;99.90;;;;;;4975954;28;20201;-72
2022/10/13 04:45:09;;;;;;;1999.90;999.90;;;11.80;99.90;;;;;;4976344;28;20214;-72
2022/10/13 04:47:35;;;;;;;1999.90;999.90;;;11.80;99.90;;;;;;4975818;28;20209;-72
2022/10/13 04:50:01;;;;;;;1999.90;999.90;;;11.80;99.90;;;;;;4976073;28;20657;-72
2022/10/13 04:52:27;;;;;;;1999.90;999.90;;;11.90;99.90;;;;;;4976419;28;20412;-72
2022/10/13 04:54:52;;;;;;;1999.90;999.90;;;11.90;99.90;;;;;;4975614;28;20461;-72
2022/10/13 04:57:18;;;;;;;1999.90;999.90;;;11.90;99.90;;;;;;4976080;28;20696;-73
2022/10/13 04:59:44;;;;;;;1999.90;999.90;;;11.90;99.90;;;;;;4976526;28;20236;-72
2022/10/13 05:02:10;;;;;;;1999.90;999.90;;;11.90;99.90;;;;;;4975778;28;20461;-72
2022/10/13 05:04:35;;;;;;;1999.90;999.90;;;11.90;99.90;;;;;;4976632;28;20640;-72
2022/10/13 05:07:01;;;;;;;1999.90;999.90;;;11.90;99.90;;;;;;4976286;28;20221;-72
2022/10/13 05:09:27;;;;;;;1999.90;999.90;;;11.90;99.90;;;;;;4976431;28;20171;-72
2022/10/13 05:11:54;;;;;;;1999.90;999.90;;;11.80;99.90;;;;;;4976395;28;20162;-72
2022/10/13 05:14:20;;;;;;;1999.90;999.90;;;11.80;99.90;;;;;;4975956;28;20408;-72
2022/10/13 05:16:46;;;;;;;1999.90;999.90;;;11.80;99.90;;;;;;4975923;28;20461;-72
2022/10/13 05:19:12;;;;;;;1999.90;999.90;;;11.80;99.90;;;;;;4975589;28;20410;-71
2022/10/13 05:21:38;;;;;;;1999.90;999.90;;;11.80;99.90;;;;;;4974785;28;20167;-71
2022/10/13 05:24:05;;;;;;;1999.90;999.90;;;11.70;99.90;;;;;;4975693;28;20629;-71
2022/10/13 05:26:32;;;;;;;1999.90;999.90;;;11.70;99.90;;;;;;4975803;28;20413;-72
2022/10/13 05:28:59;;;;;;;1999.90;999.90;;;11.70;99.90;;;;;;4975607;28;20399;-72
2022/10/13 05:31:26;;;;;;;1999.90;999.90;;;11.80;99.90;;;;;;4975737;28;20793;-72
2022/10/13 05:33:53;;;;;;;1999.90;999.90;;;11.70;99.90;;;;;;4975588;28;20419;-72
2022/10/13 05:36:23;;;;;;;1999.90;999.90;;;11.70;99.90;;;;;;4975947;28;20414;-72
2022/10/13 05:38:54;;;;;;;1999.90;999.90;;;11.80;99.90;;;;;;4976106;28;20410;-72
2022/10/13 05:41:21;;;;;;;1999.90;999.90;;;11.70;99.90;;;;;;4977245;28;20406;-72
2022/10/13 05:43:47;;;;;;;1999.90;999.90;;;11.70;99.90;;;;;;4974721;28;20453;-72
2022/10/13 05:46:13;;;;;;;1999.90;999.90;;;11.70;99.90;;;;;;4973179;28;20416;-72
2022/10/13 05:48:39;;;;;;;1999.90;999.90;;;11.60;99.90;;;;;;4972710;28;20450;-72
2022/10/13 05:51:16;;;;;;;1999.90;999.90;;;11.60;99.90;;;;;;4973058;28;20409;-72
2022/10/13 05:53:47;;;;;;;1999.90;999.90;;;11.50;99.90;;;;;;4973043;28;20162;-72
2022/10/13 05:56:16;;;;;;;1999.90;999.90;;;11.60;99.90;;;;;;4972988;28;20406;-72
2022/10/13 05:58:47;;;;;;;1999.90;999.90;;;11.60;99.90;;;;;;4972770;28;20436;-72
2022/10/13 06:01:16;;;;;;;1999.90;999.90;;;11.60;99.90;;;;;;4976412;28;20484;-72
2022/10/13 06:03:43;;;;;;;1999.90;999.90;;;11.60;99.90;;;;;;4976690;28;20888;-72
2022/10/13 06:06:09;;;;;;;1999.90;999.90;;;11.60;99.90;;;;;;4976752;28;20457;-72
2022/10/13 06:08:35;;;;;;;1999.90;999.90;;;11.60;99.90;;;;;;4976511;28;20426;-72
2022/10/13 06:11:02;;;;;;;1999.90;999.90;;;11.70;99.90;;;;;;4976808;28;20202;-72
2022/10/13 06:13:27;;;;;;;1999.90;999.90;;;11.70;99.90;;;;;;4976714;28;20445;-72
2022/10/13 06:15:53;;;;;;;1999.90;999.90;;;11.70;99.90;;;;;;4976520;28;20527;-72
2022/10/13 06:18:18;;;;;;;1999.90;999.90;;;11.70;99.90;;;;;;4976301;28;20194;-72
2022/10/13 06:20:44;;;;;;;1999.90;999.90;;;11.70;99.90;;;;;;4976629;28;20168;-72
2022/10/13 06:23:09;;;;;;;1999.90;999.90;;;11.80;99.90;;;;;;4976383;28;20202;-72
2022/10/13 06:25:35;;;;;;;1999.90;999.90;;;11.90;99.90;;;;;;4976453;28;20267;-72
2022/10/13 06:28:01;;;;;;;1999.90;999.90;;;11.90;99.90;;;;;;4976091;28;20638;-73
2022/10/13 06:30:27;;;;;;;1999.90;999.90;;;11.90;99.90;;;;;;4976431;28;20173;-72
2022/10/13 06:32:56;;;;;;;1999.90;999.90;;;11.90;99.90;;;;;;4976348;28;20171;-72
2022/10/13 06:35:22;;;;;;;1999.90;999.90;;;11.90;99.90;;;;;;4976325;28;20967;-72
2022/10/13 06:37:49;;;;;;;1999.90;999.90;;;11.90;99.90;;;;;;4975921;28;20565;-72
2022/10/13 06:40:15;;;;;;;1999.90;999.90;;;12.00;99.90;;;;;;4980572;28;20406;-72
2022/10/13 06:42:40;;;;;;;1999.90;999.90;;;12.10;99.90;;;;;;4975942;28;20455;-72
2022/10/13 06:45:06;;;;;;;1999.90;999.90;;;12.10;99.90;;;;;;4977845;28;20496;-73
2022/10/13 06:47:32;;;;;;;1999.90;999.90;;;12.20;99.90;;;;;;4975606;28;20273;-72
2022/10/13 06:49:58;;;;;;;1999.90;999.90;;;12.30;99.90;;;;;;4980372;28;20892;-72
2022/10/13 06:52:23;;;;;;;1999.90;999.90;;;12.30;99.90;;;;;;4978445;28;20550;-72
2022/10/13 06:54:49;;;;;;;1999.90;999.90;;;12.30;99.90;;;;;;4978287;28;20205;-72
2022/10/13 06:57:14;;;;;;;1999.90;999.90;;;12.30;99.90;;;;;;4980221;28;20272;-72
2022/10/13 06:59:40;;;;;;;1999.90;999.90;;;12.40;99.90;;;;;;4978265;28;20209;-72
2022/10/13 07:02:05;;;;;;;1999.90;999.90;;;12.40;99.90;;;;;;4981284;28;20209;-71
2022/10/13 07:04:31;;;;;;;1999.90;999.90;;;12.50;99.90;;;;;;4980302;28;20636;-71
2022/10/13 07:06:57;;;;;;;1999.90;999.90;;;12.60;99.90;;;;;;4979499;28;20186;-72
2022/10/13 07:09:22;;;;;;;1999.90;999.90;;;12.60;99.90;;;;;;4980302;28;20206;-72
2022/10/13 07:11:49;;;;;;;1999.90;999.90;;;12.70;99.90;;;;;;4979475;28;20166;-71
2022/10/13 07:14:14;;;;;;;1999.90;999.90;;;12.70;99.90;;;;;;4979545;28;20283;-72
2022/10/13 07:16:40;;;;;;;1999.90;999.90;;;12.70;99.90;;;;;;4978034;28;20437;-72
2022/10/13 07:19:06;;;;;;;1999.90;999.90;;;12.80;99.90;;;;;;4975067;28;20254;-73
2022/10/13 07:21:31;;;;;;;1999.90;999.90;;;12.90;99.90;;;;;;4974727;28;20648;-73
2022/10/13 07:23:57;;;;;;;1999.90;999.90;;;13.00;99.90;;;;;;4975126;28;20221;-73
2022/10/13 07:26:23;;;;;;;1999.90;999.90;;;13.00;99.90;;;;;;4964738;28;20172;-73
2022/10/13 07:28:49;;;;;;;1999.90;999.90;;;13.10;99.90;;;;;;4960935;28;20195;-73
2022/10/13 07:31:18;;;;;;;1999.90;999.90;;;13.10;99.90;;;;;;4973841;28;20256;-76
2022/10/13 07:33:46;;;;;;;1999.90;999.90;;;13.20;99.90;;;;;;4962848;28;20422;-76
2022/10/13 07:36:12;;;;;;;1999.90;999.90;;;13.30;99.90;;;;;;4953556;28;20411;-73
2022/10/13 07:38:38;;;;;;;1999.90;999.90;;;13.30;99.90;;;;;;4953211;28;20437;-73
2022/10/13 07:41:06;;;;;;;1999.90;999.90;;;13.40;99.90;;;;;;4954241;28;20506;-73
2022/10/13 07:43:32;;;;;;;1999.90;999.90;;;13.50;99.90;;;;;;4953786;28;20962;-73
2022/10/13 07:45:58;;;;;;;1999.90;999.90;;;13.50;99.90;;;;;;4953930;28;20463;-73
2022/10/13 07:48:25;;;;;;;1999.90;999.90;;;13.60;99.90;;;;;;4953002;28;20264;-73
2022/10/13 07:50:51;;;;;;;1999.90;999.90;;;13.70;99.90;;;;;;4953590;28;20484;-73
2022/10/13 07:53:16;;;;;;;1999.90;999.90;;;13.70;99.90;;;;;;4954040;28;20417;-73
2022/10/13 07:55:42;;;;;;;1999.90;999.90;;;13.90;99.90;;;;;;4953969;28;20173;-73
2022/10/13 07:58:08;;;;;;;1999.90;999.90;;;13.90;99.90;;;;;;4952144;28;20663;-73
2022/10/13 08:00:33;;;;;;;1999.90;999.90;;;14.00;99.90;;;;;;4953950;28;20167;-73
2022/10/13 08:02:59;;;;;;;1999.90;999.90;;;14.10;99.90;;;;;;4953797;28;20261;-73
2022/10/13 08:05:24;;;;;;;1999.90;999.90;;;14.30;99.90;;;;;;4953617;28;20175;-73
2022/10/13 08:07:50;;;;;;;1999.90;999.90;;;14.40;99.90;;;;;;4952549;28;20206;-73
2022/10/13 08:10:16;;;;;;;1999.90;999.90;;;14.60;99.90;;;;;;4953339;28;20172;-73
2022/10/13 08:12:41;;;;;;;1999.90;999.90;;;14.60;99.90;;;;;;4952852;28;20168;-73
2022/10/13 08:15:08;;;;;;;1999.90;999.90;;;14.70;99.90;;;;;;4953453;28;20215;-73
2022/10/13 08:17:33;;;;;;;1999.90;999.90;;;14.80;99.90;;;;;;4952797;28;20834;-73
2022/10/13 08:19:59;;;;;;;1999.90;999.90;;;14.70;99.90;;;;;;4953057;28;20414;-73
2022/10/13 08:22:26;;;;;;;1999.90;999.90;;;14.80;99.90;;;;;;4952982;28;20201;-73
2022/10/13 08:24:51;;;;;;;1999.90;999.90;;;14.80;99.90;;;;;;4953508;28;20222;-73
2022/10/13 08:27:20;;;;;;;1999.90;999.90;;;14.90;99.90;;;;;;4952613;28;20836;-73
2022/10/13 08:29:45;;;;;;;1999.90;999.90;;;14.90;99.90;;;;;;4952309;28;20234;-73
2022/10/13 08:32:11;;;;;;;1999.90;999.90;;;14.90;99.90;;;;;;4953348;28;20502;-73
2022/10/13 08:34:39;;;;;;;1999.90;999.90;;;15.00;99.90;;;;;;4953195;28;20566;-73
2022/10/13 08:37:05;;;;;;;1999.90;999.90;;;15.20;99.90;;;;;;4952096;28;20216;-73
2022/10/13 08:39:31;;;;;;;1999.90;999.90;;;15.30;99.90;;;;;;4952498;28;20802;-73
2022/10/13 08:41:57;;;;;;;1999.90;999.90;;;15.50;99.90;;;;;;4952891;28;20259;-73
2022/10/13 08:44:33;;;;;;;1999.90;999.90;;;15.70;99.90;;;;;;4952800;28;20159;-73
2022/10/13 08:47:08;;;;;;;1999.90;999.90;;;16.00;99.90;;;;;;4952181;28;20454;-73
2022/10/13 08:49:34;;;;;;;1999.90;999.90;;;16.20;99.90;;;;;;4952464;29;20421;-73
2022/10/13 08:52:03;;;;;;;1999.90;999.90;;;16.30;99.90;;;;;;4952575;28;20409;-73
2022/10/13 08:54:29;;;;;;;1999.90;999.90;;;16.50;99.90;;;;;;4952798;28;20192;-73
2022/10/13 08:56:54;;;;;;;1999.90;999.90;;;16.70;99.90;;;;;;4952172;28;20526;-73
2022/10/13 08:59:20;;;;;;;1999.90;999.90;;;16.90;99.90;;;;;;4951800;28;20180;-73
2022/10/13 09:01:50;;;;;;;1999.90;999.90;;;17.00;99.90;;;;;;4952707;28;20171;-73
2022/10/13 09:04:35;;;;;;;1999.90;999.90;;;17.10;99.90;;;;;;4952284;28;20445;-73
2022/10/13 09:07:19;;;;;;;1999.90;999.90;;;17.20;99.90;;;;;;4951922;28;20429;-73
2022/10/13 09:09:50;;;;;;;1999.90;999.90;;;17.30;99.90;;;;;;4951910;28;20496;-73
2022/10/13 09:12:20;;;;;;;1999.90;999.90;;;17.30;99.90;;;;;;4952145;28;20421;-73
2022/10/13 09:15:00;;;;;;;1999.90;999.90;;;17.40;99.90;;;;;;4952358;28;20418;-73
2022/10/13 09:17:26;;;;;;;1999.90;999.90;;;17.50;99.90;;;;;;4951364;28;20963;-73
2022/10/13 09:20:19;;;;;;;1999.90;999.90;;;17.70;99.90;;;;;;4951515;28;20413;-73
2022/10/13 09:22:59;;;;;;;1999.90;999.90;;;17.80;99.90;;;;;;4952153;28;20982;-73
2022/10/13 09:25:24;;;;;;;1999.90;999.90;;;18.00;99.90;;;;;;4952286;28;20481;-73
2022/10/13 09:27:58;;;;;;;1999.90;999.90;;;18.10;99.90;;;;;;4950691;28;20462;-73
2022/10/13 09:30:34;;;;;;;1999.90;999.90;;;18.20;99.90;;;;;;4951976;28;20175;-73
2022/10/13 09:33:12;;;;;;;1999.90;999.90;;;18.40;99.90;;;;;;4951023;28;20427;-73
2022/10/13 09:35:39;;;;;;;1999.90;999.90;;;18.50;99.90;;;;;;4951474;28;20417;-73
2022/10/13 09:38:16;;;;;;;1999.90;999.90;;;18.50;99.90;;;;;;4951102;28;20430;-73
2022/10/13 09:40:54;;;;;;;1999.90;999.90;;;18.50;99.90;;;;;;4952058;28;20928;-73
2022/10/13 09:43:46;;;;;;;1999.90;999.90;;;18.50;99.90;;;;;;4951668;28;20457;-73
2022/10/13 09:46:29;;;;;;;1999.90;999.90;;;18.40;99.90;;;;;;4924505;28;20481;-73
2022/10/13 09:49:06;;;;;;;1999.90;999.90;;;18.50;99.90;;;;;;4951209;28;20415;-74
2022/10/13 09:51:41;;;;;;;1999.90;999.90;;;18.50;99.90;;;;;;4952137;28;20454;-73
2022/10/13 09:54:27;;;;;;;1999.90;999.90;;;18.50;99.90;;;;;;4952231;28;20415;-73
2022/10/13 09:57:01;;;;;;;1999.90;999.90;;;18.50;99.90;;;;;;4951738;28;20429;-73
2022/10/13 09:59:37;;;;;;;1999.90;999.90;;;18.50;99.90;;;;;;4953022;28;20443;-73
2022/10/13 10:02:16;;;;;;;1999.90;999.90;;;18.50;99.90;;;;;;4952259;28;20412;-72
2022/10/13 10:04:42;;;;;;;1999.90;999.90;;;18.50;99.90;;;;;;4952775;28;20407;-73
2022/10/13 10:07:16;;;;;;;1999.90;999.90;;;18.50;99.90;;;;;;4952431;28;20506;-73
2022/10/13 10:09:49;;;;;;;1999.90;999.90;;;18.50;99.90;;;;;;4952768;28;20183;-73
2022/10/13 10:12:19;;;;;;;1999.90;999.90;;;18.40;99.90;;;;;;4952345;28;20419;-72
2022/10/13 10:14:44;;;;;;;1999.90;999.90;;;18.40;99.90;;;;;;4953064;28;20866;-73
2022/10/13 10:17:22;;;;;;;1999.90;999.90;;;18.30;99.90;;;;;;4952442;28;20517;-73
2022/10/13 10:20:09;;;;;;;1999.90;999.90;;;18.30;99.90;;;;;;4952449;28;20190;-73
2022/10/13 10:22:56;;;;;;;1999.90;999.90;;;18.30;99.90;;;;;;4952428;28;20484;-73
2022/10/13 10:25:43;;;;;;;1999.90;999.90;;;18.20;99.90;;;;;;4952952;29;20410;-73
2022/10/13 10:28:12;;;;;;;1999.90;999.90;;;18.20;99.90;;;;;;4951383;28;20953;-73
2022/10/13 10:30:46;;;;;;;1999.90;999.90;;;18.20;99.90;;;;;;4952785;28;20482;-73
2022/10/13 10:33:18;;;;;;;1999.90;999.90;;;18.30;99.90;;;;;;4952404;28;20422;-73
2022/10/13 10:36:27;;;;;;;1999.90;999.90;;;18.20;99.90;;;;;;4952829;28;20411;-73
2022/10/13 10:39:05;;;;;;;1999.90;999.90;;;18.40;99.90;;;;;;4892713;29;20436;-73
2022/10/13 10:41:46;;;;;;;1999.90;999.90;;;18.40;99.90;;;;;;4948699;28;20525;-73
2022/10/13 10:44:31;;;;;;;1999.90;999.90;;;18.40;99.90;;;;;;4952302;28;20466;-73
2022/10/13 10:47:04;;;;;;;1999.90;999.90;;;18.40;99.90;;;;;;4952949;28;20450;-73
2022/10/13 10:49:32;;;;;;;1999.90;999.90;;;18.30;99.90;;;;;;4955547;28;20402;-73
2022/10/13 10:52:00;;;;;;;1999.90;999.90;;;18.20;99.90;;;;;;4955996;28;20472;-73
2022/10/13 10:55:02;;;;;;;1999.90;999.90;;;18.20;99.90;;;;;;4955767;28;20923;-73
2022/10/13 10:57:38;;;;;;;1999.90;999.90;;;18.20;99.90;;;;;;4954735;28;20467;-72
2022/10/13 11:00:15;;;;;;;1999.90;999.90;;;17.90;99.90;;;;;;4955947;28;20405;-73
2022/10/13 11:03:02;;;;;;;1999.90;999.90;;;17.90;99.90;;;;;;4955864;28;20458;-73
2022/10/13 11:06:05;;;;;;;1999.90;999.90;;;17.80;99.90;;;;;;4955801;28;20612;-73
2022/10/13 11:08:36;;;;;;;1999.90;999.90;;;17.70;99.90;;;;;;4955169;28;20529;-72
2022/10/13 11:11:24;;;;;;;1999.90;999.90;;;17.70;99.90;;;;;;4956792;28;20407;-73
2022/10/13 11:13:59;;;;;;;1999.90;999.90;;;17.70;99.90;;;;;;4956456;28;20953;-73
2022/10/13 11:16:28;;;;;;;1999.90;999.90;;;17.80;99.90;;;;;;4956812;28;20478;-73
2022/10/13 11:18:54;;;;;;;1999.90;999.90;;;17.70;99.90;;;;;;4955501;28;20399;-73
2022/10/13 11:21:20;;;;;;;1999.90;999.90;;;17.60;99.90;;;;;;4956166;28;20845;-72
2022/10/13 11:23:48;;;;;;;1999.90;999.90;;;17.60;99.90;;;;;;4956729;28;20548;-72
2022/10/13 11:26:40;;;;;;;1999.90;999.90;;;17.50;99.90;;;;;;4955864;28;20194;-73
2022/10/13 11:29:15;;;;;;;1999.90;999.90;;;17.40;99.90;;;;;;4955805;28;20412;-72
2022/10/13 11:33:23;;;;;;;1999.90;999.90;;;17.40;99.90;;;;;;4956233;28;20405;-72
2022/10/13 11:35:40;;;;;;;1999.90;999.90;;;17.50;99.90;;;;;;4946092;29;20421;-72
2022/10/13 11:38:34;;;;;;;1999.90;999.90;;;17.50;99.90;;;;;;4951934;28;20445;-73
2022/10/13 11:41:13;;;;;;;1999.90;999.90;;;17.60;99.90;;;;;;4953402;29;20476;-72
2022/10/13 11:43:38;;;;;;;1999.90;999.90;;;17.70;99.90;;;;;;4955629;28;20464;-73
2022/10/13 11:46:30;;;;;;;1999.90;999.90;;;17.70;99.90;;;;;;4954912;28;20407;-72
2022/10/13 11:49:33;;;;;;;1999.90;999.90;;;17.70;99.90;;;;;;4968888;28;20202;-73
2022/10/13 11:52:20;;;;;;;1999.90;999.90;;;17.70;99.90;;;;;;4972044;28;20766;-71
2022/10/13 11:55:03;;;;;;;1999.90;999.90;;;17.70;99.90;;;;;;4972303;28;20508;-76
2022/10/13 11:57:31;;;;;;;1999.90;999.90;;;17.80;99.90;;;;;;4976736;28;20439;-74
2022/10/13 11:59:57;;;;;;;1999.90;999.90;;;17.90;99.90;;;;;;4974255;28;20506;-73
2022/10/13 12:02:30;;;;;;;1999.90;999.90;;;18.00;99.90;;;;;;4973174;28;21179;-74
2022/10/13 12:05:27;;;;;;;1999.90;999.90;;;18.30;99.90;;;;;;4973407;28;20437;-72
2022/10/13 12:07:57;;;;;;;1999.90;999.90;;;18.10;99.90;;;;;;4962518;28;20448;-72
2022/10/13 12:10:36;;;;;;;1999.90;999.90;;;18.10;99.90;;;;;;4973101;28;20406;-75
2022/10/13 12:13:03;;;;;;;1999.90;999.90;;;18.20;99.90;;;;;;4975309;28;20442;-73
2022/10/13 12:15:43;;;;;;;1999.90;999.90;;;18.30;99.90;;;;;;4972784;28;20421;-74